sensor_id;sensor_type;location;lat;lon;timestamp;temperature;humidity
1055;DHT22;516;51.482;7.120;2023-07-29T00:00:59;18.00;99.90
1055;DHT22;516;51.482;7.120;2023-07-29T00:06:47;18.00;99.90
1055;DHT22;516;51.482;7.120;2023-07-29T00:12:35;18.20;99.90
1055;DHT22;516;51.482;7.120;2023-07-29T00:18:23;18.10;99.90
1055;DHT22;516;51.482;7.120;2023-07-29T00:27:33;18.00;99.90
1055;DHT22;516;51.482;7.120;2023-07-29T00:33:20;18.00;99.90
1055;DHT22;516;51.482;7.120;2023-07-29T00:39:08;17.80;99.90
1055;DHT22;516;51.482;7.120;2023-07-29T00:44:56;17.90;99.90
1055;DHT22;516;51.482;7.120;2023-07-29T00:50:44;17.90;99.90
1055;DHT22;516;51.482;7.120;2023-07-29T00:56:32;17.90;99.90
1055;DHT22;516;51.482;7.120;2023-07-29T01:02:20;17.90;99.90
1055;DHT22;516;51.482;7.120;2023-07-29T01:21:16;17.70;99.90
1055;DHT22;516;51.482;7.120;2023-07-29T01:30:31;17.60;99.90
1055;DHT22;516;51.482;7.120;2023-07-29T01:36:22;17.40;99.90
1055;DHT22;516;51.482;7.120;2023-07-29T01:42:11;17.50;99.90
1055;DHT22;516;51.482;7.120;2023-07-29T01:47:58;17.50;99.90
1055;DHT22;516;51.482;7.120;2023-07-29T01:53:46;17.50;99.90
1055;DHT22;516;51.482;7.120;2023-07-29T01:59:34;17.80;99.90
1055;DHT22;516;51.482;7.120;2023-07-29T02:05:22;17.90;99.90
1055;DHT22;516;51.482;7.120;2023-07-29T02:11:09;18.00;99.90
1055;DHT22;516;51.482;7.120;2023-07-29T02:16:58;18.10;99.90
1055;DHT22;516;51.482;7.120;2023-07-29T02:22:45;18.10;99.90
1055;DHT22;516;51.482;7.120;2023-07-29T02:25:50;18.10;99.90
1055;DHT22;516;51.482;7.120;2023-07-29T02:28:15;18.10;99.90
1055;DHT22;516;51.482;7.120;2023-07-29T02:34:04;18.10;99.90
1055;DHT22;516;51.482;7.120;2023-07-29T02:39:51;18.10;99.90
1055;DHT22;516;51.482;7.120;2023-07-29T02:45:39;18.10;99.90
1055;DHT22;516;51.482;7.120;2023-07-29T02:51:27;18.10;99.90
1055;DHT22;516;51.482;7.120;2023-07-29T02:57:15;18.00;99.90
1055;DHT22;516;51.482;7.120;2023-07-29T03:03:04;18.00;99.90
1055;DHT22;516;51.482;7.120;2023-07-29T03:08:52;18.10;99.90
1055;DHT22;516;51.482;7.120;2023-07-29T03:14:40;18.10;99.90
1055;DHT22;516;51.482;7.120;2023-07-29T03:20:28;18.10;99.90
1055;DHT22;516;51.482;7.120;2023-07-29T03:36:06;18.30;99.90
1055;DHT22;516;51.482;7.120;2023-07-29T03:41:54;18.30;99.90
1055;DHT22;516;51.482;7.120;2023-07-29T03:47:42;18.40;99.90
1055;DHT22;516;51.482;7.120;2023-07-29T03:53:11;18.30;99.90
1055;DHT22;516;51.482;7.120;2023-07-29T03:59:03;18.30;99.90
1055;DHT22;516;51.482;7.120;2023-07-29T04:04:51;18.30;99.90
1055;DHT22;516;51.482;7.120;2023-07-29T04:10:39;18.30;99.90
1055;DHT22;516;51.482;7.120;2023-07-29T04:16:26;18.30;99.90
1055;DHT22;516;51.482;7.120;2023-07-29T04:22:16;18.30;99.90
1055;DHT22;516;51.482;7.120;2023-07-29T04:28:04;18.30;99.90
1055;DHT22;516;51.482;7.120;2023-07-29T04:33:52;18.30;99.90
1055;DHT22;516;51.482;7.120;2023-07-29T04:39:40;18.40;99.90
1055;DHT22;516;51.482;7.120;2023-07-29T04:45:30;18.60;99.90
1055;DHT22;516;51.482;7.120;2023-07-29T04:51:18;18.60;99.90
1055;DHT22;516;51.482;7.120;2023-07-29T04:57:06;18.60;99.90
1055;DHT22;516;51.482;7.120;2023-07-29T05:02:54;18.60;99.90
1055;DHT22;516;51.482;7.120;2023-07-29T05:08:41;18.60;99.90
1055;DHT22;516;51.482;7.120;2023-07-29T05:14:30;18.60;99.90
1055;DHT22;516;51.482;7.120;2023-07-29T05:20:18;18.70;99.90
1055;DHT22;516;51.482;7.120;2023-07-29T05:36:08;19.00;59.00
1055;DHT22;516;51.482;7.120;2023-07-29T05:41:56;19.10;23.40
1055;DHT22;516;51.482;7.120;2023-07-29T05:47:44;19.10;14.70
1055;DHT22;516;51.482;7.120;2023-07-29T05:53:32;19.00;17.70
1055;DHT22;516;51.482;7.120;2023-07-29T05:59:19;18.80;54.10
1055;DHT22;516;51.482;7.120;2023-07-29T06:05:07;18.70;49.70
1055;DHT22;516;51.482;7.120;2023-07-29T06:10:55;18.60;1.00
1055;DHT22;516;51.482;7.120;2023-07-29T06:16:44;18.60;1.00
1055;DHT22;516;51.482;7.120;2023-07-29T06:22:32;18.60;1.00
1055;DHT22;516;51.482;7.120;2023-07-29T06:28:17;18.70;1.00
1055;DHT22;516;51.482;7.120;2023-07-29T06:34:07;18.70;1.00
1055;DHT22;516;51.482;7.120;2023-07-29T06:39:59;18.90;1.00
1055;DHT22;516;51.482;7.120;2023-07-29T06:45:47;18.80;1.00
1055;DHT22;516;51.482;7.120;2023-07-29T06:51:36;19.00;1.00
1055;DHT22;516;51.482;7.120;2023-07-29T06:57:24;19.00;1.00
1055;DHT22;516;51.482;7.120;2023-07-29T07:03:11;18.80;1.00
1055;DHT22;516;51.482;7.120;2023-07-29T07:08:59;18.90;1.00
1055;DHT22;516;51.482;7.120;2023-07-29T07:14:47;19.30;1.00
1055;DHT22;516;51.482;7.120;2023-07-29T07:20:36;19.30;1.00
1055;DHT22;516;51.482;7.120;2023-07-29T07:36:14;21.30;1.00
1055;DHT22;516;51.482;7.120;2023-07-29T07:42:02;21.00;1.00
1055;DHT22;516;51.482;7.120;2023-07-29T07:47:52;20.90;1.00
1055;DHT22;516;51.482;7.120;2023-07-29T07:53:41;21.80;1.00
1055;DHT22;516;51.482;7.120;2023-07-29T07:59:29;21.60;1.00
1055;DHT22;516;51.482;7.120;2023-07-29T08:05:17;21.10;1.00
1055;DHT22;516;51.482;7.120;2023-07-29T08:11:05;20.40;1.00
1055;DHT22;516;51.482;7.120;2023-07-29T08:16:53;21.90;1.00
1055;DHT22;516;51.482;7.120;2023-07-29T08:22:41;22.20;1.00
1055;DHT22;516;51.482;7.120;2023-07-29T08:28:28;21.70;1.00
1055;DHT22;516;51.482;7.120;2023-07-29T08:34:16;20.90;1.00
1055;DHT22;516;51.482;7.120;2023-07-29T08:40:04;21.70;1.00
1055;DHT22;516;51.482;7.120;2023-07-29T08:45:55;22.30;1.00
1055;DHT22;516;51.482;7.120;2023-07-29T08:51:46;22.40;1.00
1055;DHT22;516;51.482;7.120;2023-07-29T08:57:35;23.00;1.00
1055;DHT22;516;51.482;7.120;2023-07-29T09:03:23;23.10;1.00
1055;DHT22;516;51.482;7.120;2023-07-29T09:09:10;22.20;1.00
1055;DHT22;516;51.482;7.120;2023-07-29T09:14:58;22.90;1.00
1055;DHT22;516;51.482;7.120;2023-07-29T09:20:48;23.50;1.00
1055;DHT22;516;51.482;7.120;2023-07-29T09:30:30;22.70;1.00
1055;DHT22;516;51.482;7.120;2023-07-29T09:36:21;23.10;1.00
1055;DHT22;516;51.482;7.120;2023-07-29T09:42:17;24.40;1.00
1055;DHT22;516;51.482;7.120;2023-07-29T09:48:05;24.10;1.00
1055;DHT22;516;51.482;7.120;2023-07-29T09:53:57;24.10;1.00
1055;DHT22;516;51.482;7.120;2023-07-29T10:06:20;22.30;1.00
1055;DHT22;516;51.482;7.120;2023-07-29T10:12:09;22.30;1.00
1055;DHT22;516;51.482;7.120;2023-07-29T10:17:57;22.80;1.00
1055;DHT22;516;51.482;7.120;2023-07-29T10:23:47;23.20;1.00
1055;DHT22;516;51.482;7.120;2023-07-29T10:33:02;24.20;1.00
1055;DHT22;516;51.482;7.120;2023-07-29T10:38:50;24.60;1.00
1055;DHT22;516;51.482;7.120;2023-07-29T10:50:33;24.40;1.00
1055;DHT22;516;51.482;7.120;2023-07-29T10:56:32;24.60;1.00
1055;DHT22;516;51.482;7.120;2023-07-29T11:02:19;23.60;1.00
1055;DHT22;516;51.482;7.120;2023-07-29T11:14:46;25.50;1.00
1055;DHT22;516;51.482;7.120;2023-07-29T11:20:34;25.80;1.00
1055;DHT22;516;51.482;7.120;2023-07-29T11:26:22;25.70;1.00
1055;DHT22;516;51.482;7.120;2023-07-29T11:32:09;26.20;1.00
1055;DHT22;516;51.482;7.120;2023-07-29T11:37:57;25.90;1.00
1055;DHT22;516;51.482;7.120;2023-07-29T11:43:45;25.60;1.00
1055;DHT22;516;51.482;7.120;2023-07-29T11:49:33;24.80;1.00
1055;DHT22;516;51.482;7.120;2023-07-29T11:55:21;25.20;1.00
1055;DHT22;516;51.482;7.120;2023-07-29T12:01:09;24.30;1.00
1055;DHT22;516;51.482;7.120;2023-07-29T12:06:57;24.60;1.00
1055;DHT22;516;51.482;7.120;2023-07-29T12:12:50;25.80;1.00
1055;DHT22;516;51.482;7.120;2023-07-29T12:18:37;26.00;1.00
1055;DHT22;516;51.482;7.120;2023-07-29T12:24:25;25.90;1.00
1055;DHT22;516;51.482;7.120;2023-07-29T12:33:36;24.50;1.00
1055;DHT22;516;51.482;7.120;2023-07-29T12:39:30;25.80;1.00
1055;DHT22;516;51.482;7.120;2023-07-29T12:45:18;25.70;1.00
1055;DHT22;516;51.482;7.120;2023-07-29T12:51:05;24.50;1.00
1055;DHT22;516;51.482;7.120;2023-07-29T12:56:53;25.90;1.00
1055;DHT22;516;51.482;7.120;2023-07-29T13:02:41;24.60;1.00
1055;DHT22;516;51.482;7.120;2023-07-29T13:08:30;25.70;1.00
1055;DHT22;516;51.482;7.120;2023-07-29T13:14:18;24.50;1.00
1055;DHT22;516;51.482;7.120;2023-07-29T13:20:06;24.90;1.00
1055;DHT22;516;51.482;7.120;2023-07-29T13:25:55;25.20;1.00
1055;DHT22;516;51.482;7.120;2023-07-29T13:31:28;24.80;1.00
1055;DHT22;516;51.482;7.120;2023-07-29T13:37:15;24.40;1.00
1055;DHT22;516;51.482;7.120;2023-07-29T13:43:04;23.80;1.00
1055;DHT22;516;51.482;7.120;2023-07-29T13:48:52;23.60;1.00
1055;DHT22;516;51.482;7.120;2023-07-29T13:54:39;23.20;1.00
1055;DHT22;516;51.482;7.120;2023-07-29T14:00:27;22.90;1.00
1055;DHT22;516;51.482;7.120;2023-07-29T14:06:15;22.80;1.00
1055;DHT22;516;51.482;7.120;2023-07-29T14:12:02;22.30;1.00
1055;DHT22;516;51.482;7.120;2023-07-29T14:17:50;21.20;1.00
1055;DHT22;516;51.482;7.120;2023-07-29T14:23:38;19.90;1.00
1055;DHT22;516;51.482;7.120;2023-07-29T14:39:25;18.40;1.00
1055;DHT22;516;51.482;7.120;2023-07-29T14:45:13;18.80;1.00
1055;DHT22;516;51.482;7.120;2023-07-29T14:51:01;21.00;1.00
1055;DHT22;516;51.482;7.120;2023-07-29T14:56:48;21.30;1.00
1055;DHT22;516;51.482;7.120;2023-07-29T15:02:36;20.90;1.00
1055;DHT22;516;51.482;7.120;2023-07-29T15:08:24;21.00;1.00
1055;DHT22;516;51.482;7.120;2023-07-29T15:14:12;19.90;1.00
1055;DHT22;516;51.482;7.120;2023-07-29T15:19:59;19.40;1.00
1055;DHT22;516;51.482;7.120;2023-07-29T15:25:47;19.50;1.00
1055;DHT22;516;51.482;7.120;2023-07-29T15:31:33;19.40;1.00
1055;DHT22;516;51.482;7.120;2023-07-29T15:37:21;19.70;1.00
1055;DHT22;516;51.482;7.120;2023-07-29T15:43:09;21.00;1.00
1055;DHT22;516;51.482;7.120;2023-07-29T15:48:38;20.50;1.00
1055;DHT22;516;51.482;7.120;2023-07-29T15:54:26;20.90;1.00
1055;DHT22;516;51.482;7.120;2023-07-29T16:00:14;21.20;1.00
1055;DHT22;516;51.482;7.120;2023-07-29T16:06:02;22.40;1.00
1055;DHT22;516;51.482;7.120;2023-07-29T16:11:50;22.60;1.00
1055;DHT22;516;51.482;7.120;2023-07-29T16:17:38;22.70;1.00
1055;DHT22;516;51.482;7.120;2023-07-29T16:23:26;24.60;1.00
1055;DHT22;516;51.482;7.120;2023-07-29T16:35:59;22.10;1.00
1055;DHT22;516;51.482;7.120;2023-07-29T16:41:48;21.60;1.00
1055;DHT22;516;51.482;7.120;2023-07-29T16:47:37;21.80;1.00
1055;DHT22;516;51.482;7.120;2023-07-29T16:53:26;22.10;1.00
1055;DHT22;516;51.482;7.120;2023-07-29T16:59:15;21.60;1.00
1055;DHT22;516;51.482;7.120;2023-07-29T17:05:02;21.30;1.00
1055;DHT22;516;51.482;7.120;2023-07-29T17:10:51;21.00;1.00
1055;DHT22;516;51.482;7.120;2023-07-29T17:16:39;20.90;1.00
1055;DHT22;516;51.482;7.120;2023-07-29T17:22:27;21.00;1.00
1055;DHT22;516;51.482;7.120;2023-07-29T17:28:14;21.00;1.00
1055;DHT22;516;51.482;7.120;2023-07-29T17:34:02;20.80;1.00
1055;DHT22;516;51.482;7.120;2023-07-29T17:43:11;20.70;1.00
1055;DHT22;516;51.482;7.120;2023-07-29T17:48:59;20.50;1.00
1055;DHT22;516;51.482;7.120;2023-07-29T17:54:47;20.40;1.00
1055;DHT22;516;51.482;7.120;2023-07-29T18:00:35;20.10;1.00
1055;DHT22;516;51.482;7.120;2023-07-29T18:06:23;19.90;1.00
1055;DHT22;516;51.482;7.120;2023-07-29T18:12:11;19.80;1.00
1055;DHT22;516;51.482;7.120;2023-07-29T18:17:59;19.50;45.70
1055;DHT22;516;51.482;7.120;2023-07-29T18:23:47;19.30;31.20
1055;DHT22;516;51.482;7.120;2023-07-29T18:29:36;18.90;99.90
1055;DHT22;516;51.482;7.120;2023-07-29T18:35:17;18.80;99.90
1055;DHT22;516;51.482;7.120;2023-07-29T18:41:05;18.70;99.90
1055;DHT22;516;51.482;7.120;2023-07-29T18:46:53;18.60;34.80
1055;DHT22;516;51.482;7.120;2023-07-29T18:52:40;18.30;72.10
1055;DHT22;516;51.482;7.120;2023-07-29T18:58:28;17.90;99.90
1055;DHT22;516;51.482;7.120;2023-07-29T19:04:16;17.80;89.00
1055;DHT22;516;51.482;7.120;2023-07-29T19:10:03;17.80;99.90
1055;DHT22;516;51.482;7.120;2023-07-29T19:15:52;17.50;99.90
1055;DHT22;516;51.482;7.120;2023-07-29T19:21:41;17.50;99.90
1055;DHT22;516;51.482;7.120;2023-07-29T19:27:29;17.40;99.90
1055;DHT22;516;51.482;7.120;2023-07-29T19:43:10;17.30;99.90
1055;DHT22;516;51.482;7.120;2023-07-29T19:48:58;17.20;99.90
1055;DHT22;516;51.482;7.120;2023-07-29T19:54:45;17.20;99.90
1055;DHT22;516;51.482;7.120;2023-07-29T20:00:34;17.20;99.90
1055;DHT22;516;51.482;7.120;2023-07-29T20:06:21;17.30;99.90
1055;DHT22;516;51.482;7.120;2023-07-29T20:12:09;17.30;99.90
1055;DHT22;516;51.482;7.120;2023-07-29T20:17:57;17.60;99.90
1055;DHT22;516;51.482;7.120;2023-07-29T20:23:45;17.60;99.90
1055;DHT22;516;51.482;7.120;2023-07-29T20:29:35;17.70;99.90
1055;DHT22;516;51.482;7.120;2023-07-29T20:35:17;17.70;99.90
1055;DHT22;516;51.482;7.120;2023-07-29T20:41:05;17.70;99.90
1055;DHT22;516;51.482;7.120;2023-07-29T20:46:52;17.60;99.90
1055;DHT22;516;51.482;7.120;2023-07-29T20:52:40;17.60;99.90
1055;DHT22;516;51.482;7.120;2023-07-29T20:58:28;17.50;99.90
1055;DHT22;516;51.482;7.120;2023-07-29T21:04:16;17.50;99.90
1055;DHT22;516;51.482;7.120;2023-07-29T21:10:04;17.40;99.90
1055;DHT22;516;51.482;7.120;2023-07-29T21:15:53;17.30;99.90
1055;DHT22;516;51.482;7.120;2023-07-29T21:21:41;17.30;99.90
1055;DHT22;516;51.482;7.120;2023-07-29T21:27:28;17.20;99.90
1055;DHT22;516;51.482;7.120;2023-07-29T21:43:09;17.20;99.90
1055;DHT22;516;51.482;7.120;2023-07-29T21:48:57;17.10;99.90
1055;DHT22;516;51.482;7.120;2023-07-29T21:54:25;17.10;99.90
1055;DHT22;516;51.482;7.120;2023-07-29T22:00:13;17.10;99.90
1055;DHT22;516;51.482;7.120;2023-07-29T22:06:05;17.00;99.90
1055;DHT22;516;51.482;7.120;2023-07-29T22:11:53;17.00;99.90
1055;DHT22;516;51.482;7.120;2023-07-29T22:17:40;17.00;99.90
1055;DHT22;516;51.482;7.120;2023-07-29T22:23:28;16.90;99.90
1055;DHT22;516;51.482;7.120;2023-07-29T22:29:16;16.80;99.90
1055;DHT22;516;51.482;7.120;2023-07-29T22:35:04;16.80;99.90
1055;DHT22;516;51.482;7.120;2023-07-29T22:40:53;16.80;99.90
1055;DHT22;516;51.482;7.120;2023-07-29T22:46:42;16.60;99.90
1055;DHT22;516;51.482;7.120;2023-07-29T22:52:32;16.50;99.90
1055;DHT22;516;51.482;7.120;2023-07-29T22:58:20;16.40;99.90
1055;DHT22;516;51.482;7.120;2023-07-29T23:04:08;16.30;99.90
1055;DHT22;516;51.482;7.120;2023-07-29T23:09:56;16.30;99.90
1055;DHT22;516;51.482;7.120;2023-07-29T23:15:44;16.60;99.90
1055;DHT22;516;51.482;7.120;2023-07-29T23:21:31;16.50;99.90
1055;DHT22;516;51.482;7.120;2023-07-29T23:27:19;16.00;99.90
1055;DHT22;516;51.482;7.120;2023-07-29T23:43:28;15.70;99.90
1055;DHT22;516;51.482;7.120;2023-07-29T23:49:15;15.70;99.90
1055;DHT22;516;51.482;7.120;2023-07-29T23:55:02;15.60;99.90
